createdAt,value
2024-04-18T00:00:11.784Z,3.71
2024-04-18T00:01:11.967Z,3.69
2024-04-18T00:02:11.907Z,3.74
2024-04-18T00:03:12.016Z,3.75
2024-04-18T00:04:12.128Z,3.71
2024-04-18T00:05:12.276Z,3.74
2024-04-18T00:06:12.154Z,3.83
2024-04-18T00:07:12.222Z,3.72
2024-04-18T00:08:12.251Z,3.63
2024-04-18T00:09:12.323Z,3.69
2024-04-18T00:10:12.375Z,3.72
2024-04-18T00:11:12.464Z,3.72
2024-04-18T00:12:12.604Z,3.76
2024-04-18T00:13:12.589Z,3.74
2024-04-18T00:14:12.615Z,3.70
2024-04-18T00:15:12.720Z,3.87
2024-04-18T00:16:12.773Z,3.75
2024-04-18T00:17:12.853Z,3.69
2024-04-18T00:18:12.912Z,3.80
2024-04-18T00:19:12.901Z,3.79
2024-04-18T00:20:12.992Z,3.69
2024-04-18T00:21:13.069Z,3.74
2024-04-18T00:22:13.135Z,3.81
2024-04-18T00:23:13.141Z,3.68
2024-04-18T00:24:13.237Z,3.73
2024-04-18T00:25:13.288Z,3.73
2024-04-18T00:26:13.293Z,3.77
2024-04-18T00:27:13.452Z,3.81
2024-04-18T00:28:13.486Z,3.70
2024-04-18T00:29:13.526Z,3.75
2024-04-18T00:30:13.599Z,3.70
2024-04-18T00:31:13.643Z,3.61
2024-04-18T00:32:13.756Z,3.67
2024-04-18T00:33:13.775Z,3.64
2024-04-18T00:34:13.847Z,3.69
2024-04-18T00:35:13.877Z,3.63
2024-04-18T00:36:13.995Z,3.67
2024-04-18T00:37:14.077Z,3.65
2024-04-18T00:38:14.168Z,3.66
2024-04-18T00:39:14.180Z,3.67
2024-04-18T00:40:14.231Z,3.65
2024-04-18T00:41:14.294Z,3.75
2024-04-18T00:42:14.443Z,3.64
2024-04-18T00:43:14.442Z,3.59
2024-04-18T00:44:14.476Z,3.67
2024-04-18T00:45:14.577Z,3.71
2024-04-18T00:46:14.637Z,3.67
2024-04-18T00:47:14.663Z,3.66
2024-04-18T00:48:14.915Z,3.56
2024-04-18T00:49:14.808Z,3.78
2024-04-18T00:50:14.821Z,3.71
2024-04-18T00:51:14.897Z,3.66
2024-04-18T00:52:15.080Z,3.78
2024-04-18T00:53:15.054Z,3.74
2024-04-18T00:54:15.129Z,3.67
2024-04-18T00:55:16.007Z,3.72
2024-04-18T00:56:18.138Z,3.71
2024-04-18T00:57:15.239Z,3.69
2024-04-18T00:58:15.185Z,3.73
2024-04-18T00:59:15.220Z,3.72
2024-04-18T01:00:15.191Z,3.62
2024-04-18T01:01:15.283Z,3.67
2024-04-18T01:02:15.208Z,3.70
2024-04-18T01:03:15.280Z,3.75
2024-04-18T01:04:15.528Z,3.73
2024-04-18T01:05:15.255Z,3.80
2024-04-18T01:06:15.222Z,3.75
2024-04-18T01:07:15.251Z,3.75
2024-04-18T01:08:15.305Z,3.76
2024-04-18T01:09:15.241Z,3.72
2024-04-18T01:10:15.213Z,3.79
2024-04-18T01:11:15.244Z,3.82
2024-04-18T01:12:15.233Z,3.76
2024-04-18T01:13:15.199Z,3.74
2024-04-18T01:14:15.242Z,3.71
2024-04-18T01:15:15.285Z,3.69
2024-04-18T01:16:15.214Z,3.69
2024-04-18T01:17:15.251Z,3.72
2024-04-18T01:18:15.401Z,3.72
2024-04-18T01:19:15.268Z,3.73
2024-04-18T01:20:15.222Z,3.70
2024-04-18T01:21:15.266Z,3.75
2024-04-18T01:22:15.243Z,3.70
2024-04-18T01:23:15.227Z,3.64
2024-04-18T01:24:15.250Z,3.82
2024-04-18T01:25:15.275Z,3.73
2024-04-18T01:26:15.215Z,3.72
2024-04-18T01:27:15.267Z,3.68
2024-04-18T01:28:15.232Z,3.69
2024-04-18T01:29:15.246Z,3.71
2024-04-18T01:30:15.264Z,3.75
2024-04-18T01:31:15.230Z,3.66
2024-04-18T01:32:15.241Z,3.67
2024-04-18T01:33:15.439Z,3.62
2024-04-18T01:34:15.488Z,3.58
2024-04-18T01:35:15.444Z,3.66
2024-04-18T01:36:15.524Z,3.67
2024-04-18T01:37:15.579Z,3.63
2024-04-18T01:38:15.620Z,3.61
2024-04-18T01:39:15.698Z,3.65
2024-04-18T01:40:15.768Z,3.64
2024-04-18T01:41:15.789Z,3.66
2024-04-18T01:42:15.912Z,3.68
2024-04-18T01:43:15.925Z,3.63
2024-04-18T01:44:16.081Z,3.57
2024-04-18T01:45:16.114Z,3.67
2024-04-18T01:46:16.134Z,3.67
2024-04-18T01:47:16.232Z,3.62
2024-04-18T01:48:16.364Z,3.62
2024-04-18T01:49:16.406Z,3.66
2024-04-18T01:50:16.501Z,3.62
2024-04-18T01:51:16.533Z,3.65
2024-04-18T01:52:16.573Z,3.59
2024-04-18T01:53:16.586Z,3.58
2024-04-18T01:54:16.726Z,3.59
2024-04-18T01:55:16.733Z,3.59
2024-04-18T01:56:16.800Z,3.64
2024-04-18T01:57:16.875Z,3.63
2024-04-18T01:58:16.932Z,3.59
2024-04-18T01:59:17.641Z,3.69
2024-04-18T02:00:17.081Z,3.61
2024-04-18T02:01:17.209Z,3.62
2024-04-18T02:02:17.201Z,3.64
2024-04-18T02:03:17.316Z,3.62
2024-04-18T02:04:17.411Z,3.56
2024-04-18T02:05:17.345Z,3.59
2024-04-18T02:06:17.453Z,3.62
2024-04-18T02:07:17.508Z,3.62
2024-04-18T02:08:17.571Z,3.63
2024-04-18T02:09:17.673Z,3.55
2024-04-18T02:10:17.689Z,3.63
2024-04-18T02:11:17.801Z,3.62
2024-04-18T02:12:17.874Z,3.58
2024-04-18T02:13:17.894Z,3.65
2024-04-18T02:14:17.979Z,3.70
2024-04-18T02:15:18.044Z,3.64
2024-04-18T02:16:18.101Z,3.61
2024-04-18T02:17:18.176Z,3.67
2024-04-18T02:18:18.277Z,3.56
2024-04-18T02:19:18.307Z,3.58
2024-04-18T02:20:18.352Z,3.69
2024-04-18T02:21:18.439Z,3.55
2024-04-18T02:22:18.478Z,3.62
2024-04-18T02:23:18.528Z,3.64
2024-04-18T02:24:18.576Z,3.62
2024-04-18T02:25:18.691Z,3.65
2024-04-18T02:26:18.792Z,3.58
2024-04-18T02:27:18.785Z,3.66
2024-04-18T02:28:18.878Z,3.59
2024-04-18T02:29:18.906Z,3.62
2024-04-18T02:30:19.104Z,3.54
2024-04-18T02:31:19.023Z,3.62
2024-04-18T02:32:19.189Z,3.57
2024-04-18T02:33:19.217Z,3.57
2024-04-18T02:34:19.224Z,3.63
2024-04-18T02:35:19.309Z,3.60
2024-04-18T02:36:19.434Z,3.57
2024-04-18T02:37:19.396Z,3.54
2024-04-18T02:38:19.491Z,3.39
2024-04-18T02:39:19.573Z,3.56
2024-04-18T02:40:19.664Z,3.59
2024-04-18T02:41:19.669Z,3.51
2024-04-18T02:42:19.734Z,3.55
2024-04-18T02:43:19.843Z,3.55
2024-04-18T02:44:19.900Z,3.54
2024-04-18T02:45:19.958Z,3.50
2024-04-18T02:46:19.991Z,3.58
2024-04-18T02:47:20.071Z,3.47
2024-04-18T02:48:20.192Z,3.48
2024-04-18T02:49:20.208Z,3.54
2024-04-18T02:50:20.282Z,3.55
2024-04-18T02:51:20.288Z,3.44
2024-04-18T02:52:20.403Z,3.48
2024-04-18T02:53:20.483Z,3.42
2024-04-18T02:54:20.536Z,3.51
2024-04-18T02:55:20.558Z,3.51
2024-04-18T02:56:20.645Z,3.43
2024-04-18T02:57:20.764Z,3.47
2024-04-18T02:58:20.772Z,3.50
2024-04-18T02:59:20.822Z,3.48
2024-04-18T03:00:20.924Z,3.51
2024-04-18T03:01:20.981Z,3.51
2024-04-18T03:02:21.017Z,3.48
2024-04-18T03:03:21.112Z,3.55
2024-04-18T03:04:21.200Z,3.41
2024-04-18T03:05:21.213Z,3.43
2024-04-18T03:06:21.303Z,3.46
2024-04-18T03:07:21.338Z,3.44
2024-04-18T03:08:21.442Z,3.49
2024-04-18T03:09:21.538Z,3.44
2024-04-18T03:10:21.511Z,3.50
2024-04-18T03:11:21.666Z,3.49
2024-04-18T03:12:21.699Z,3.45
2024-04-18T03:13:21.754Z,3.51
2024-04-18T03:14:21.844Z,3.44
2024-04-18T03:15:21.910Z,3.39
2024-04-18T03:16:21.887Z,3.46
2024-04-18T03:17:22.032Z,3.48
2024-04-18T03:18:22.120Z,3.43
2024-04-18T03:19:22.122Z,3.50
2024-04-18T03:20:22.162Z,3.49
2024-04-18T03:21:22.252Z,3.46
2024-04-18T03:22:22.308Z,3.44
2024-04-18T03:23:22.374Z,3.43
2024-04-18T03:24:22.483Z,3.45
2024-04-18T03:25:22.479Z,3.47
2024-04-18T03:26:22.660Z,3.56
2024-04-18T03:27:22.714Z,3.42
2024-04-18T03:28:22.719Z,3.38
2024-04-18T03:29:22.787Z,3.40
2024-04-18T03:30:22.844Z,3.33
2024-04-18T03:31:22.883Z,3.38
2024-04-18T03:32:23.033Z,3.43
2024-04-18T03:33:23.114Z,3.46
2024-04-18T03:34:23.075Z,3.36
2024-04-18T03:35:23.159Z,3.40
2024-04-18T03:36:23.297Z,3.42
2024-04-18T03:37:23.263Z,3.44
2024-04-18T03:38:23.395Z,3.52
2024-04-18T03:39:23.437Z,3.49
2024-04-18T03:40:23.514Z,3.39
2024-04-18T03:41:23.511Z,3.45
2024-04-18T03:42:23.684Z,3.42
2024-04-18T03:43:23.657Z,3.41
2024-04-18T03:44:23.730Z,3.33
2024-04-18T03:45:23.951Z,3.43
2024-04-18T03:46:23.832Z,3.47
2024-04-18T03:47:23.965Z,3.38
2024-04-18T03:48:24.060Z,3.45
2024-04-18T03:49:24.055Z,3.35
2024-04-18T03:50:24.171Z,3.51
2024-04-18T03:51:24.303Z,3.38
2024-04-18T03:52:24.270Z,3.44
2024-04-18T03:53:24.405Z,3.40
2024-04-18T03:54:24.416Z,3.37
2024-04-18T03:55:24.540Z,3.38
2024-04-18T03:56:24.530Z,3.38
2024-04-18T03:57:24.588Z,3.42
2024-04-18T03:58:24.644Z,3.42
2024-04-18T03:59:24.718Z,3.44
2024-04-18T04:00:24.846Z,3.40
2024-04-18T04:01:32.033Z,0.50
2024-04-18T04:02:31.993Z,0.50
2024-04-18T04:03:31.996Z,0.50
2024-04-18T04:04:32.013Z,0.50
2024-04-18T04:05:31.919Z,0.50
2024-04-18T04:06:33.611Z,0.50
2024-04-18T04:07:31.944Z,0.50
2024-04-18T04:08:31.954Z,0.49
2024-04-18T04:09:31.959Z,0.47
2024-04-18T04:10:31.973Z,0.44
2024-04-18T04:11:32.000Z,0.43
2024-04-18T04:12:31.987Z,0.49
2024-04-18T04:13:31.950Z,0.51
2024-04-18T04:14:32.121Z,0.50
2024-04-18T04:15:32.029Z,0.50
2024-04-18T04:16:31.925Z,0.51
2024-04-18T04:17:31.977Z,0.50
2024-04-18T04:18:31.998Z,0.50
2024-04-18T04:19:32.142Z,0.50
2024-04-18T04:20:31.928Z,0.50
2024-04-18T04:21:31.998Z,0.50
2024-04-18T04:22:33.565Z,0.51
2024-04-18T04:23:31.934Z,0.51
2024-04-18T04:24:31.971Z,0.50
2024-04-18T04:25:31.967Z,0.51
2024-04-18T04:26:31.956Z,0.51
2024-04-18T04:27:31.998Z,0.50
2024-04-18T04:28:31.968Z,0.51
2024-04-18T04:29:32.024Z,0.50
2024-04-18T04:30:39.189Z,0.50
2024-04-18T04:31:46.296Z,0.50
2024-04-18T04:32:46.327Z,0.50
2024-04-18T04:33:46.326Z,0.50
2024-04-18T04:34:46.292Z,0.50
2024-04-18T04:35:46.272Z,0.50
2024-04-18T04:36:46.276Z,0.50
2024-04-18T04:37:46.271Z,0.50
2024-04-18T04:38:46.311Z,0.52
2024-04-18T04:39:46.347Z,0.52
2024-04-18T04:40:46.329Z,0.51
2024-04-18T04:41:46.331Z,0.50
2024-04-18T04:42:46.380Z,0.51
2024-04-18T04:43:46.306Z,0.50
2024-04-18T04:44:46.319Z,0.51
2024-04-18T04:45:46.383Z,0.50
2024-04-18T04:46:46.264Z,0.50
2024-04-18T04:47:46.326Z,0.51
2024-04-18T04:48:46.318Z,0.52
2024-04-18T04:49:46.334Z,0.51
2024-04-18T04:50:46.308Z,0.50
2024-04-18T04:51:46.367Z,0.52
2024-04-18T04:52:46.281Z,0.52
2024-04-18T04:53:46.315Z,0.52
2024-04-18T04:54:46.414Z,0.52
2024-04-18T04:55:46.293Z,0.52
2024-04-18T04:56:46.352Z,0.52
2024-04-18T04:57:46.334Z,0.52
2024-04-18T04:58:46.307Z,0.53
2024-04-18T04:59:46.285Z,0.53
2024-04-18T05:00:46.314Z,0.54
2024-04-18T05:01:46.351Z,0.54
2024-04-18T05:02:48.791Z,0.53
2024-04-18T05:03:46.370Z,0.53
2024-04-18T05:04:46.362Z,0.53
2024-04-18T05:05:46.304Z,0.53
2024-04-18T05:06:46.327Z,0.53
2024-04-18T05:07:46.318Z,0.54
2024-04-18T05:08:46.311Z,0.55
2024-04-18T05:09:46.352Z,0.55
2024-04-18T05:10:46.375Z,0.55
2024-04-18T05:11:46.309Z,0.55
2024-04-18T05:12:46.382Z,0.56
2024-04-18T05:13:46.344Z,0.55
2024-04-18T05:14:46.306Z,0.56
2024-04-18T05:15:46.348Z,0.56
2024-04-18T05:16:46.383Z,0.55
2024-04-18T05:17:46.345Z,0.56
2024-04-18T05:18:46.323Z,0.56
2024-04-18T05:19:46.362Z,0.55
2024-04-18T05:20:46.345Z,0.56
2024-04-18T05:21:46.411Z,0.58
2024-04-18T05:22:46.399Z,0.56
2024-04-18T05:23:46.356Z,0.57
2024-04-18T05:24:46.338Z,0.56
2024-04-18T05:25:46.433Z,0.57
2024-04-18T05:26:46.344Z,0.56
2024-04-18T05:27:46.651Z,0.57
2024-04-18T05:28:46.340Z,0.57
2024-04-18T05:29:46.356Z,0.56
2024-04-18T05:30:46.395Z,0.56
2024-04-18T05:31:46.368Z,0.57
2024-04-18T05:32:46.597Z,0.58
2024-04-18T05:33:46.460Z,0.57
2024-04-18T05:34:46.340Z,0.57
2024-04-18T05:35:46.401Z,0.56
2024-04-18T05:36:46.358Z,0.54
2024-04-18T05:37:46.373Z,0.54
2024-04-18T05:38:46.415Z,0.52
2024-04-18T05:39:46.430Z,0.50
2024-04-18T05:40:46.377Z,0.50
2024-04-18T05:41:46.348Z,0.51
2024-04-18T05:42:46.509Z,0.53
2024-04-18T05:43:46.358Z,0.52
2024-04-18T05:44:46.393Z,0.51
2024-04-18T05:45:46.375Z,0.52
2024-04-18T05:46:46.411Z,0.52
2024-04-18T05:47:46.413Z,0.51
2024-04-18T05:48:46.445Z,0.51
2024-04-18T05:49:46.402Z,0.51
2024-04-18T05:50:46.374Z,0.51
2024-04-18T05:51:46.386Z,0.53
2024-04-18T05:52:46.383Z,0.54
2024-04-18T05:53:46.487Z,0.56
2024-04-18T05:54:46.403Z,0.56
2024-04-18T05:55:46.532Z,0.60
2024-04-18T05:56:46.525Z,0.61
2024-04-18T05:57:46.619Z,0.63
2024-04-18T05:58:46.413Z,0.64
2024-04-18T05:59:46.378Z,0.67
2024-04-18T06:00:46.457Z,0.69
2024-04-18T06:01:46.480Z,0.69
2024-04-18T06:02:46.441Z,0.75
2024-04-18T06:03:46.439Z,0.75
2024-04-18T06:04:46.484Z,0.76
2024-04-18T06:05:46.421Z,0.81
2024-04-18T06:06:46.464Z,0.83
2024-04-18T06:07:46.856Z,0.83
2024-04-18T06:08:46.415Z,0.89
2024-04-18T06:09:46.440Z,0.91
2024-04-18T06:10:46.397Z,0.96
2024-04-18T06:11:46.418Z,0.99
2024-04-18T06:12:46.448Z,1.01
2024-04-18T06:13:46.454Z,1.03
2024-04-18T06:14:46.416Z,1.06
2024-04-18T06:15:46.436Z,1.10
2024-04-18T06:16:46.695Z,1.13
2024-04-18T06:17:46.526Z,1.14
2024-04-18T06:18:46.718Z,1.19
2024-04-18T06:19:46.493Z,1.26
2024-04-18T06:20:46.615Z,1.33
2024-04-18T06:21:46.755Z,1.36
2024-04-18T06:22:46.564Z,1.40
2024-04-18T06:23:46.605Z,1.42
2024-04-18T06:24:48.823Z,1.42
2024-04-18T06:25:46.745Z,1.44
2024-04-18T06:26:46.695Z,1.43
2024-04-18T06:27:46.794Z,1.46
2024-04-18T06:28:47.062Z,1.48
2024-04-18T06:29:46.738Z,1.48
2024-04-18T06:30:46.879Z,1.53
2024-04-18T06:31:46.994Z,1.55
2024-04-18T06:32:47.048Z,1.61
2024-04-18T06:33:46.902Z,1.58
2024-04-18T06:34:46.876Z,1.63
2024-04-18T06:35:46.982Z,1.63
2024-04-18T06:36:47.026Z,1.65
2024-04-18T06:37:47.029Z,1.66
2024-04-18T06:38:47.153Z,1.66
2024-04-18T06:39:47.352Z,1.72
2024-04-18T06:40:47.238Z,1.73
2024-04-18T06:41:47.312Z,1.69
2024-04-18T06:42:47.391Z,1.78
2024-04-18T06:43:47.387Z,1.79
2024-04-18T06:44:48.367Z,1.72
2024-04-18T06:45:47.400Z,1.67
2024-04-18T06:46:53.224Z,1.60
2024-04-18T06:47:48.667Z,1.60
2024-04-18T06:48:47.555Z,1.49
2024-04-18T06:49:47.418Z,1.38
2024-04-18T06:50:47.469Z,1.31
2024-04-18T06:51:47.418Z,1.24
2024-04-18T06:52:47.433Z,1.12
2024-04-18T06:53:47.407Z,1.07
2024-04-18T06:54:47.487Z,1.01
2024-04-18T06:55:47.396Z,0.99
2024-04-18T06:56:47.470Z,0.95
2024-04-18T06:57:47.491Z,0.90
2024-04-18T06:58:47.425Z,0.90
2024-04-18T06:59:47.425Z,0.85
2024-04-18T07:00:48.281Z,0.82
2024-04-18T07:01:47.539Z,0.80
2024-04-18T07:02:47.486Z,0.77
2024-04-18T07:03:47.695Z,0.72
2024-04-18T07:04:47.850Z,0.67
2024-04-18T07:05:47.674Z,0.61
2024-04-18T07:06:47.820Z,0.55
2024-04-18T07:07:47.846Z,0.50
2024-04-18T07:08:47.846Z,0.50
2024-04-18T07:09:49.857Z,0.50
2024-04-18T07:10:48.030Z,0.50
2024-04-18T07:11:48.038Z,0.50
2024-04-18T07:12:48.126Z,0.50
2024-04-18T07:13:48.137Z,0.50
2024-04-18T07:14:48.166Z,0.50
2024-04-18T07:15:48.242Z,0.50
2024-04-18T07:16:48.594Z,0.50
2024-04-18T07:17:49.191Z,0.51
2024-04-18T07:18:48.515Z,0.50
2024-04-18T07:19:48.452Z,0.51
2024-04-18T07:20:48.405Z,0.52
2024-04-18T07:21:48.559Z,0.55
2024-04-18T07:22:48.505Z,0.54
2024-04-18T07:23:48.480Z,0.51
2024-04-18T07:24:48.518Z,0.50
2024-04-18T07:25:48.578Z,0.50
2024-04-18T07:26:48.764Z,0.50
2024-04-18T07:27:48.722Z,0.50
2024-04-18T07:28:48.816Z,0.50
2024-04-18T07:29:48.719Z,0.50
2024-04-18T07:30:48.869Z,0.50
2024-04-18T07:31:48.843Z,0.53
2024-04-18T07:32:48.965Z,0.52
2024-04-18T07:33:48.919Z,0.55
2024-04-18T07:34:48.882Z,0.54
2024-04-18T07:35:48.871Z,0.51
2024-04-18T07:36:49.667Z,0.51
2024-04-18T07:37:51.780Z,0.51
2024-04-18T07:38:49.429Z,0.52
2024-04-18T07:39:48.940Z,0.52
2024-04-18T07:40:48.850Z,0.54
2024-04-18T07:41:48.856Z,0.54
2024-04-18T07:42:48.952Z,0.56
2024-04-18T07:43:48.910Z,0.59
2024-04-18T07:44:48.894Z,0.63
2024-04-18T07:45:48.912Z,0.65
2024-04-18T07:46:48.920Z,0.67
2024-04-18T07:47:49.008Z,0.67
2024-04-18T07:48:49.014Z,0.69
2024-04-18T07:49:49.630Z,0.72
2024-04-18T07:50:48.900Z,0.73
2024-04-18T07:51:49.810Z,0.74
2024-04-18T07:52:56.854Z,0.75
2024-04-18T07:53:50.017Z,0.75
2024-04-18T07:54:48.982Z,0.75
2024-04-18T07:55:48.881Z,0.75
2024-04-18T07:56:49.299Z,0.77
2024-04-18T07:57:49.459Z,0.79
2024-04-18T07:58:49.657Z,0.79
2024-04-18T07:59:49.769Z,0.80
2024-04-18T08:00:50.123Z,0.80
2024-04-18T08:01:50.435Z,0.81
2024-04-18T08:02:50.801Z,0.80
2024-04-18T08:04:02.413Z,0.81
2024-04-18T08:04:55.208Z,0.82
2024-04-18T08:05:51.766Z,0.82
2024-04-18T08:06:51.075Z,0.82
2024-04-18T08:07:51.342Z,0.82
2024-04-18T08:08:51.472Z,0.82
2024-04-18T08:09:52.696Z,0.82
2024-04-18T08:12:53.211Z,0.82
2024-04-18T08:13:52.843Z,0.82
2024-04-18T08:14:53.342Z,0.82
2024-04-18T08:16:48.960Z,0.82
2024-04-18T08:17:49.005Z,0.84
2024-04-18T08:18:48.985Z,0.87
2024-04-18T08:19:48.987Z,0.92
2024-04-18T08:20:48.984Z,0.96
2024-04-18T08:21:48.960Z,0.99
2024-04-18T08:22:48.979Z,1.08
2024-04-18T08:23:48.979Z,1.16
2024-04-18T08:24:48.988Z,1.27
2024-04-18T08:25:49.138Z,1.35
2024-04-18T08:26:48.949Z,1.36
2024-04-18T08:27:48.984Z,1.37
2024-04-18T08:28:49.065Z,1.35
2024-04-18T08:29:48.958Z,1.36
2024-04-18T08:30:48.922Z,1.34
2024-04-18T08:31:48.970Z,1.35
2024-04-18T08:32:49.025Z,1.32
2024-04-18T08:33:57.847Z,1.24
2024-04-18T08:34:50.044Z,1.23
2024-04-18T08:35:48.962Z,1.12
2024-04-18T08:36:48.978Z,1.03
2024-04-18T08:37:48.974Z,0.96
2024-04-18T08:38:48.986Z,0.92
2024-04-18T08:39:49.146Z,0.85
2024-04-18T08:40:48.961Z,0.76
2024-04-18T08:41:48.972Z,0.75
2024-04-18T08:42:49.053Z,0.69
2024-04-18T08:43:52.222Z,0.64
2024-04-18T08:44:48.953Z,0.63
2024-04-18T08:45:48.956Z,0.60
2024-04-18T08:46:48.986Z,0.54
2024-04-18T08:47:49.201Z,0.50
2024-04-18T08:48:49.116Z,0.50
2024-04-18T08:49:48.999Z,0.50
2024-04-18T08:50:49.019Z,0.50
2024-04-18T08:51:49.051Z,0.50
2024-04-18T08:52:49.007Z,0.51
2024-04-18T08:53:49.014Z,0.52
2024-04-18T08:54:49.045Z,0.51
2024-04-18T08:55:48.968Z,0.52
2024-04-18T08:56:49.018Z,0.52
2024-04-18T08:57:49.030Z,0.54
2024-04-18T08:58:49.020Z,0.53
2024-04-18T08:59:49.028Z,0.54
2024-04-18T09:00:49.052Z,0.54
2024-04-18T09:01:49.010Z,0.56
2024-04-18T09:02:49.124Z,0.57
2024-04-18T09:03:49.038Z,0.56
2024-04-18T09:04:49.032Z,0.57
2024-04-18T09:05:49.010Z,0.59
2024-04-18T09:06:49.008Z,0.63
2024-04-18T09:07:49.009Z,0.64
2024-04-18T09:08:49.012Z,0.63
2024-04-18T09:09:49.023Z,0.63
2024-04-18T09:10:49.140Z,0.59
2024-04-18T09:11:49.019Z,0.60
2024-04-18T09:12:49.003Z,0.61
2024-04-18T09:13:49.057Z,0.58
2024-04-18T09:14:49.057Z,0.56
2024-04-18T09:15:49.058Z,0.54
2024-04-18T09:16:49.050Z,0.52
2024-04-18T09:17:49.080Z,0.50
2024-04-18T09:18:49.130Z,0.51
2024-04-18T09:19:49.059Z,0.50
2024-04-18T09:20:49.040Z,0.50
2024-04-18T09:21:49.069Z,0.51
2024-04-18T09:22:49.044Z,0.50
2024-04-18T09:23:49.026Z,0.50
2024-04-18T09:24:49.019Z,0.50
2024-04-18T09:25:49.051Z,0.51
2024-04-18T09:26:49.036Z,0.52
2024-04-18T09:27:50.026Z,0.52
2024-04-18T09:28:49.033Z,0.53
2024-04-18T09:29:49.071Z,0.53
2024-04-18T09:30:49.027Z,0.53
2024-04-18T09:31:49.048Z,0.51
2024-04-18T09:32:49.140Z,0.53
2024-04-18T09:33:49.193Z,0.53
2024-04-18T09:34:49.097Z,0.57
2024-04-18T09:35:49.031Z,0.56
2024-04-18T09:36:49.147Z,0.55
2024-04-18T09:37:53.535Z,0.58
2024-04-18T09:38:50.043Z,0.58
2024-04-18T09:39:49.106Z,0.59
2024-04-18T09:40:49.020Z,0.61
2024-04-18T09:41:49.108Z,0.64
2024-04-18T09:42:49.046Z,0.70
2024-04-18T09:43:49.066Z,0.70
2024-04-18T09:44:49.068Z,0.74
2024-04-18T09:45:49.055Z,0.69
2024-04-18T09:46:50.603Z,0.67
2024-04-18T09:47:49.161Z,0.70
2024-04-18T09:48:49.155Z,0.70
2024-04-18T09:49:51.029Z,0.71
2024-04-18T09:50:49.056Z,0.72
2024-04-18T09:51:49.034Z,0.72
2024-04-18T09:52:49.149Z,0.67
2024-04-18T09:53:49.075Z,0.66
2024-04-18T09:54:49.059Z,0.67
2024-04-18T09:55:49.096Z,0.70
2024-04-18T09:56:49.047Z,0.67
2024-04-18T09:57:49.086Z,0.66
2024-04-18T09:58:49.067Z,0.71
2024-04-18T09:59:49.070Z,0.73
2024-04-18T10:00:49.080Z,0.74
2024-04-18T10:01:49.089Z,0.78
2024-04-18T10:02:49.634Z,0.73
2024-04-18T10:03:49.284Z,0.78
2024-04-18T10:04:49.204Z,0.80
2024-04-18T10:05:49.080Z,0.82
2024-04-18T10:06:49.485Z,0.83
2024-04-18T10:07:49.122Z,0.81
2024-04-18T10:08:49.121Z,0.77
2024-04-18T10:09:49.129Z,0.83
2024-04-18T10:10:49.591Z,0.83
2024-04-18T10:11:49.162Z,0.87
2024-04-18T10:12:50.085Z,0.90
2024-04-18T10:13:49.118Z,0.95
2024-04-18T10:14:49.633Z,1.02
2024-04-18T10:15:49.202Z,1.04
2024-04-18T10:16:49.246Z,1.06
2024-04-18T10:17:49.448Z,1.07
2024-04-18T10:18:51.599Z,1.14
2024-04-18T10:19:49.627Z,1.14
2024-04-18T10:20:49.997Z,1.15
2024-04-18T10:22:01.067Z,1.18
2024-04-18T10:22:50.459Z,1.14
2024-04-18T10:23:49.588Z,1.12
2024-04-18T10:24:49.449Z,0.95
2024-04-18T10:25:49.510Z,0.83
2024-04-18T10:26:49.414Z,0.67
2024-04-18T10:27:49.382Z,0.53
2024-04-18T10:28:49.457Z,0.50
2024-04-18T10:29:49.680Z,0.50
2024-04-18T10:30:49.486Z,0.50
2024-04-18T10:31:49.439Z,0.51
2024-04-18T10:32:49.788Z,0.50
2024-04-18T10:33:49.632Z,0.51
2024-04-18T10:34:49.608Z,0.54
2024-04-18T10:35:50.156Z,0.58
2024-04-18T10:36:49.755Z,0.60
2024-04-18T10:37:49.855Z,0.57
2024-04-18T10:38:49.930Z,0.58
2024-04-18T10:39:49.963Z,0.61
2024-04-18T10:40:50.029Z,0.62
2024-04-18T10:41:50.103Z,0.59
2024-04-18T10:42:50.144Z,0.57
2024-04-18T10:43:50.236Z,0.54
2024-04-18T10:44:50.304Z,0.52
2024-04-18T10:45:50.333Z,0.53
2024-04-18T10:46:50.410Z,0.51
2024-04-18T10:47:50.583Z,0.50
2024-04-18T10:48:50.598Z,0.50
2024-04-18T10:49:50.563Z,0.53
2024-04-18T10:50:50.605Z,0.52
2024-04-18T10:51:50.722Z,0.51
2024-04-18T10:52:51.123Z,0.51
2024-04-18T10:53:50.753Z,0.52
2024-04-18T10:54:50.835Z,0.53
2024-04-18T10:55:50.874Z,0.51
2024-04-18T10:56:50.924Z,0.52
2024-04-18T10:57:51.034Z,0.52
2024-04-18T10:58:51.014Z,0.52
2024-04-18T10:59:51.099Z,0.50
2024-04-18T11:00:51.134Z,0.52
2024-04-18T11:01:51.202Z,0.50
2024-04-18T11:02:51.659Z,0.50
2024-04-18T11:03:51.550Z,0.51
2024-04-18T11:04:51.311Z,0.52
2024-04-18T11:05:51.369Z,0.52
2024-04-18T11:06:51.402Z,0.51
2024-04-18T11:07:51.489Z,0.51
2024-04-18T11:08:51.509Z,0.52
2024-04-18T11:09:51.582Z,0.53
2024-04-18T11:10:51.646Z,0.56
2024-04-18T11:11:51.708Z,0.61
2024-04-18T11:12:51.746Z,0.64
2024-04-18T11:13:52.164Z,0.70
2024-04-18T11:14:51.823Z,0.75
2024-04-18T11:15:51.873Z,0.80
2024-04-18T11:16:52.169Z,0.85
2024-04-18T11:17:52.097Z,0.91
2024-04-18T11:18:52.173Z,0.97
2024-04-18T11:19:52.070Z,1.03
2024-04-18T11:20:52.144Z,1.11
2024-04-18T11:21:52.651Z,1.13
2024-04-18T11:22:57.279Z,1.16
2024-04-18T11:23:53.266Z,1.16
2024-04-18T11:24:52.372Z,1.17
2024-04-18T11:25:52.272Z,1.18
2024-04-18T11:26:52.253Z,1.20
2024-04-18T11:27:52.254Z,1.26
2024-04-18T11:28:52.278Z,1.27
2024-04-18T11:29:52.240Z,1.13
2024-04-18T11:30:52.236Z,0.96
2024-04-18T11:31:52.261Z,0.87
2024-04-18T11:32:52.359Z,0.81
2024-04-18T11:33:52.446Z,0.80
2024-04-18T11:35:00.089Z,0.74
2024-04-18T11:35:53.415Z,0.69
2024-04-18T11:36:52.423Z,0.64
2024-04-18T11:37:52.417Z,0.58
2024-04-18T11:38:52.395Z,0.52
2024-04-18T11:39:52.411Z,0.47
2024-04-18T11:40:52.488Z,0.50
2024-04-18T11:41:52.436Z,0.50
2024-04-18T11:42:52.457Z,0.50
2024-04-18T11:43:52.496Z,0.50
2024-04-18T11:44:52.558Z,0.50
2024-04-18T11:45:52.612Z,0.50
2024-04-18T11:46:52.693Z,0.50
2024-04-18T11:47:52.815Z,0.52
2024-04-18T11:48:52.920Z,0.50
2024-04-18T11:49:52.908Z,0.49
2024-04-18T11:50:52.971Z,0.51
2024-04-18T11:51:53.036Z,0.51
2024-04-18T11:52:53.114Z,0.51
2024-04-18T11:53:53.156Z,0.50
2024-04-18T11:54:53.232Z,0.51
2024-04-18T11:55:54.804Z,0.52
2024-04-18T11:56:53.251Z,0.52
2024-04-18T11:57:53.299Z,0.53
2024-04-18T11:58:53.568Z,0.57
2024-04-18T11:59:53.300Z,0.61
2024-04-18T12:00:53.332Z,0.65
2024-04-18T12:01:53.286Z,0.68
2024-04-18T12:02:53.299Z,0.73
2024-04-18T12:03:53.394Z,0.81
2024-04-18T12:04:53.374Z,0.84
2024-04-18T12:05:53.295Z,0.97
2024-04-18T12:06:54.045Z,1.18
2024-04-18T12:07:53.273Z,1.52
2024-04-18T12:08:55.096Z,1.78
2024-04-18T12:09:53.260Z,1.73
2024-04-18T12:10:53.325Z,1.67
2024-04-18T12:11:53.408Z,1.54
2024-04-18T12:12:53.377Z,1.41
2024-04-18T12:13:53.447Z,1.30
2024-04-18T12:14:53.462Z,1.13
2024-04-18T12:15:53.611Z,1.04
2024-04-18T12:16:54.431Z,0.94
2024-04-18T12:17:53.481Z,0.91
2024-04-18T12:18:53.530Z,0.93
2024-04-18T12:19:53.490Z,1.06
2024-04-18T12:20:53.475Z,1.14
2024-04-18T12:21:53.731Z,1.19
2024-04-18T12:22:53.573Z,1.23
2024-04-18T12:23:53.600Z,1.34
2024-04-18T12:24:53.682Z,1.37
2024-04-18T12:25:53.746Z,1.42
2024-04-18T12:26:53.790Z,1.49
2024-04-18T12:27:53.819Z,1.62
2024-04-18T12:28:53.924Z,1.95
2024-04-18T12:29:53.947Z,2.59
2024-04-18T12:30:54.094Z,2.98
2024-04-18T12:31:54.044Z,3.23
2024-04-18T12:32:54.165Z,3.40
2024-04-18T12:33:54.197Z,3.62
2024-04-18T12:34:54.080Z,3.60
2024-04-18T12:35:54.129Z,3.80
2024-04-18T12:36:54.168Z,4.01
2024-04-18T12:37:54.157Z,3.98
2024-04-18T12:38:54.182Z,4.14
2024-04-18T12:39:54.274Z,4.31
2024-04-18T12:40:54.243Z,4.33
2024-04-18T12:41:54.225Z,3.94
2024-04-18T12:42:54.276Z,3.92
2024-04-18T12:43:54.294Z,4.04
2024-04-18T12:44:54.314Z,4.05
2024-04-18T12:46:02.936Z,4.09
2024-04-18T12:46:55.367Z,3.92
2024-04-18T12:47:54.390Z,3.91
2024-04-18T12:48:54.420Z,4.12
2024-04-18T12:49:54.398Z,4.25
2024-04-18T12:50:54.288Z,4.50
2024-04-18T12:51:54.339Z,4.69
2024-04-18T12:52:54.314Z,4.83
2024-04-18T12:53:56.627Z,4.89
2024-04-18T12:54:54.299Z,4.92
2024-04-18T12:55:54.345Z,5.12
2024-04-18T12:56:54.301Z,5.27
2024-04-18T12:57:54.306Z,5.63
2024-04-18T12:58:54.299Z,5.48
2024-04-18T12:59:54.331Z,5.62
2024-04-18T13:00:54.393Z,5.85
2024-04-18T13:01:54.339Z,5.61
2024-04-18T13:02:54.356Z,5.65
2024-04-18T13:03:56.652Z,5.57
2024-04-18T13:04:54.506Z,5.41
2024-04-18T13:05:54.523Z,5.40
2024-04-18T13:06:54.621Z,5.52
2024-04-18T13:07:54.656Z,5.62
2024-04-18T13:08:54.706Z,5.63
2024-04-18T13:09:55.373Z,5.57
2024-04-18T13:10:54.918Z,5.53
2024-04-18T13:11:55.003Z,5.49
2024-04-18T13:12:54.996Z,5.34
2024-04-18T13:13:55.063Z,5.28
2024-04-18T13:14:55.124Z,5.26
2024-04-18T13:15:56.868Z,5.03
2024-04-18T13:16:55.266Z,4.94
2024-04-18T13:17:55.244Z,4.81
2024-04-18T13:18:55.264Z,4.55
2024-04-18T13:19:55.148Z,4.42
2024-04-18T13:20:55.147Z,4.23
2024-04-18T13:21:58.156Z,4.25